createdAt,value
2023-05-22T00:01:06.722Z,13.40
2023-05-22T00:03:36.341Z,13.40
2023-05-22T00:06:06.204Z,13.30
2023-05-22T00:08:34.367Z,13.20
2023-05-22T00:11:03.578Z,13.00
2023-05-22T00:13:31.710Z,13.00
2023-05-22T00:16:01.398Z,13.00
2023-05-22T00:18:30.506Z,12.90
2023-05-22T00:20:59.869Z,12.80
2023-05-22T00:23:29.929Z,12.60
2023-05-22T00:25:58.008Z,12.50
2023-05-22T00:28:27.223Z,12.60
2023-05-22T00:30:55.319Z,12.60
2023-05-22T00:33:25.998Z,12.60
2023-05-22T00:35:53.992Z,12.60
2023-05-22T00:38:33.567Z,12.60
2023-05-22T00:41:03.758Z,12.40
2023-05-22T00:43:31.831Z,12.40
2023-05-22T00:46:00.517Z,12.40
2023-05-22T00:48:31.074Z,12.50
2023-05-22T00:51:00.505Z,12.50
2023-05-22T00:53:30.886Z,12.60
2023-05-22T00:56:00.979Z,12.50
2023-05-22T00:58:29.256Z,12.30
2023-05-22T01:00:59.021Z,12.20
2023-05-22T01:03:28.411Z,12.20
2023-05-22T01:05:57.829Z,12.20
2023-05-22T01:08:26.011Z,12.10
2023-05-22T01:11:01.382Z,12.10
2023-05-22T01:13:35.969Z,12.00
2023-05-22T01:16:14.275Z,11.90
2023-05-22T01:18:47.998Z,11.90
2023-05-22T01:21:23.049Z,11.90
2023-05-22T01:24:16.153Z,12.00
2023-05-22T01:27:08.489Z,12.00
2023-05-22T01:29:46.211Z,11.90
2023-05-22T01:32:21.351Z,11.80
2023-05-22T01:34:55.347Z,11.70
2023-05-22T01:37:24.279Z,11.70
2023-05-22T01:39:55.909Z,11.60
2023-05-22T01:42:26.168Z,11.60
2023-05-22T01:44:55.133Z,11.60
2023-05-22T01:47:25.038Z,11.50
2023-05-22T01:49:54.429Z,11.50
2023-05-22T01:52:30.159Z,11.40
2023-05-22T01:55:03.607Z,11.30
2023-05-22T01:57:33.694Z,11.30
2023-05-22T02:00:09.917Z,11.20
2023-05-22T02:02:49.980Z,11.30
2023-05-22T02:05:22.809Z,11.30
2023-05-22T02:07:51.835Z,11.40
2023-05-22T02:10:22.920Z,11.40
2023-05-22T02:12:51.020Z,11.30
2023-05-22T02:15:19.517Z,11.40
2023-05-22T02:17:49.829Z,11.40
2023-05-22T02:20:18.130Z,11.30
2023-05-22T02:22:47.716Z,11.20
2023-05-22T02:25:17.002Z,11.20
2023-05-22T02:27:47.210Z,11.20
2023-05-22T02:30:16.210Z,11.10
2023-05-22T02:32:48.035Z,11.10
2023-05-22T02:35:16.140Z,11.00
2023-05-22T02:37:44.155Z,11.10
2023-05-22T02:40:13.005Z,11.10
2023-05-22T02:42:41.004Z,11.10
2023-05-22T02:45:10.511Z,11.00
2023-05-22T02:47:38.612Z,10.90
2023-05-22T02:50:09.504Z,10.90
2023-05-22T02:52:39.360Z,10.80
2023-05-22T02:55:08.679Z,10.90
2023-05-22T02:57:37.039Z,10.80
2023-05-22T03:00:06.973Z,10.80
2023-05-22T03:02:36.627Z,10.80
2023-05-22T03:05:05.134Z,10.80
2023-05-22T03:07:35.821Z,10.80
2023-05-22T03:10:03.929Z,10.90
2023-05-22T03:12:31.905Z,11.00
2023-05-22T03:15:00.128Z,11.00
2023-05-22T03:17:28.461Z,11.00
2023-05-22T03:19:56.487Z,11.00
2023-05-22T03:22:26.677Z,11.10
2023-05-22T03:24:55.993Z,11.10
2023-05-22T03:27:24.048Z,11.10
2023-05-22T03:29:52.668Z,11.00
2023-05-22T03:32:21.556Z,10.90
2023-05-22T03:34:49.895Z,10.90
2023-05-22T03:37:18.070Z,10.90
2023-05-22T03:39:46.271Z,10.90
2023-05-22T03:42:27.383Z,11.00
2023-05-22T03:44:55.697Z,11.00
2023-05-22T03:47:27.291Z,11.00
2023-05-22T03:49:55.352Z,11.10
2023-05-22T03:52:25.880Z,11.10
2023-05-22T03:54:54.834Z,11.20
2023-05-22T03:57:24.383Z,11.10
2023-05-22T03:59:55.499Z,11.10
2023-05-22T04:02:26.473Z,11.20
2023-05-22T04:04:54.841Z,11.30
2023-05-22T04:07:25.997Z,11.30
2023-05-22T04:09:54.280Z,11.60
2023-05-22T04:12:22.306Z,11.80
2023-05-22T04:14:50.882Z,12.10
2023-05-22T04:17:21.662Z,12.30
2023-05-22T04:19:50.274Z,12.40
2023-05-22T04:22:18.727Z,12.70
2023-05-22T04:24:50.714Z,13.00
2023-05-22T04:27:22.059Z,13.40
2023-05-22T04:29:50.828Z,13.90
2023-05-22T04:32:21.733Z,14.40
2023-05-22T04:34:51.617Z,14.80
2023-05-22T04:37:20.359Z,15.10
2023-05-22T04:39:48.672Z,15.30
2023-05-22T04:42:17.392Z,16.10
2023-05-22T04:44:46.322Z,16.70
2023-05-22T04:47:15.778Z,17.30
2023-05-22T04:49:45.663Z,17.90
2023-05-22T04:52:14.113Z,18.20
2023-05-22T04:54:44.361Z,18.30
2023-05-22T04:57:13.981Z,18.10
2023-05-22T04:59:42.234Z,17.90
2023-05-22T05:02:10.507Z,18.50
2023-05-22T05:04:38.737Z,18.70
2023-05-22T05:07:08.928Z,19.00
2023-05-22T05:09:36.985Z,19.50
2023-05-22T05:12:06.836Z,20.00
2023-05-22T05:14:34.880Z,20.60
2023-05-22T05:17:05.560Z,21.10
2023-05-22T05:19:36.872Z,22.00
2023-05-22T05:22:05.996Z,22.50
2023-05-22T05:24:35.565Z,23.20
2023-05-22T05:27:04.685Z,23.70
2023-05-22T05:29:32.759Z,23.50
2023-05-22T05:32:06.312Z,24.00
2023-05-22T05:34:47.590Z,24.30
2023-05-22T05:37:40.768Z,25.00
2023-05-22T05:40:11.858Z,25.30
2023-05-22T05:42:44.609Z,26.00
2023-05-22T05:45:14.435Z,26.10
2023-05-22T05:47:49.085Z,26.10
2023-05-22T05:50:19.046Z,26.80
2023-05-22T05:52:49.072Z,27.30
2023-05-22T05:55:20.576Z,27.80
2023-05-22T05:57:50.067Z,27.80
2023-05-22T06:00:25.259Z,27.90
2023-05-22T06:02:55.248Z,28.10
2023-05-22T06:05:34.199Z,28.60
2023-05-22T06:08:15.537Z,29.10
2023-05-22T06:10:45.186Z,29.70
2023-05-22T06:13:29.507Z,29.40
2023-05-22T06:15:59.767Z,29.30
2023-05-22T06:18:30.256Z,29.30
2023-05-22T06:20:59.244Z,28.90
2023-05-22T06:23:27.264Z,28.70
2023-05-22T06:25:57.726Z,29.30
2023-05-22T06:28:27.069Z,29.50
2023-05-22T06:30:57.171Z,29.30
2023-05-22T06:33:27.108Z,30.00
2023-05-22T06:35:55.463Z,29.30
2023-05-22T06:38:24.547Z,29.00
2023-05-22T06:40:52.581Z,29.10
2023-05-22T06:43:25.756Z,30.40
2023-05-22T06:46:02.284Z,30.90
2023-05-22T06:48:51.177Z,30.60
2023-05-22T06:51:25.403Z,30.10
2023-05-22T06:54:04.328Z,29.80
2023-05-22T06:56:33.373Z,29.80
2023-05-22T06:59:06.992Z,30.70
2023-05-22T07:02:09.927Z,30.60
2023-05-22T07:04:58.336Z,32.10
2023-05-22T07:07:38.265Z,32.00
2023-05-22T07:10:07.640Z,32.70
2023-05-22T07:12:36.706Z,33.60
2023-05-22T07:15:10.479Z,33.70
2023-05-22T07:17:38.653Z,33.70
2023-05-22T07:20:08.434Z,33.70
2023-05-22T07:22:38.457Z,32.50
2023-05-22T07:25:07.362Z,33.00
2023-05-22T07:27:35.516Z,33.30
2023-05-22T07:30:06.364Z,33.90
2023-05-22T07:32:35.050Z,33.90
2023-05-22T07:35:04.806Z,33.80
2023-05-22T07:37:36.058Z,34.80
2023-05-22T07:40:04.984Z,34.40
2023-05-22T07:42:33.439Z,33.80
2023-05-22T07:45:06.289Z,33.40
2023-05-22T07:47:34.881Z,33.30
2023-05-22T07:50:04.481Z,33.20
2023-05-22T07:52:35.267Z,33.60
2023-05-22T07:55:04.509Z,34.60
2023-05-22T07:57:36.310Z,34.40
2023-05-22T08:00:16.939Z,34.70
2023-05-22T08:02:45.489Z,35.10
2023-05-22T08:05:13.616Z,35.00
2023-05-22T08:07:41.748Z,36.50
2023-05-22T08:10:16.757Z,36.50
2023-05-22T08:12:44.826Z,36.50
2023-05-22T08:15:14.883Z,36.30
2023-05-22T08:17:43.289Z,35.40
2023-05-22T08:20:12.405Z,36.90
2023-05-22T08:22:41.360Z,36.90
2023-05-22T08:25:10.813Z,36.70
2023-05-22T08:27:38.844Z,34.30
2023-05-22T08:30:08.203Z,35.00
2023-05-22T08:32:38.324Z,33.60
2023-05-22T08:35:07.273Z,35.20
2023-05-22T08:37:35.911Z,36.50
2023-05-22T08:40:06.481Z,36.60
2023-05-22T08:42:34.685Z,37.30
2023-05-22T08:45:04.709Z,37.80
2023-05-22T08:47:36.026Z,37.20
2023-05-22T08:50:06.391Z,37.30
2023-05-22T08:52:48.058Z,38.20
2023-05-22T08:55:16.585Z,38.50
2023-05-22T08:57:45.385Z,37.50
2023-05-22T09:00:15.422Z,37.40
2023-05-22T09:02:43.747Z,37.40
2023-05-22T09:05:13.265Z,37.30
2023-05-22T09:07:41.359Z,37.50
2023-05-22T09:10:09.788Z,37.30
2023-05-22T09:12:37.865Z,38.60
2023-05-22T09:15:11.725Z,38.50
2023-05-22T09:17:42.839Z,38.00
2023-05-22T09:20:16.327Z,37.70
2023-05-22T09:22:44.475Z,38.20
2023-05-22T09:25:19.998Z,39.40
2023-05-22T09:27:48.077Z,38.60
2023-05-22T09:30:17.795Z,36.40
2023-05-22T09:32:48.164Z,38.40
2023-05-22T09:35:19.480Z,40.10
2023-05-22T09:37:47.489Z,40.40
2023-05-22T09:40:15.566Z,39.50
2023-05-22T09:42:45.712Z,39.30
2023-05-22T09:45:14.388Z,37.00
2023-05-22T09:47:43.175Z,38.20
2023-05-22T09:50:11.987Z,38.90
2023-05-22T09:52:43.110Z,38.90
2023-05-22T09:55:11.959Z,39.10
2023-05-22T09:57:44.137Z,39.30
2023-05-22T10:00:18.890Z,38.20
2023-05-22T10:02:51.656Z,39.70
2023-05-22T10:05:22.444Z,40.40
2023-05-22T10:07:53.755Z,39.70
2023-05-22T10:10:24.526Z,38.30
2023-05-22T10:12:57.094Z,39.30
2023-05-22T10:15:26.113Z,39.10
2023-05-22T10:17:54.851Z,40.70
2023-05-22T10:20:23.466Z,39.90
2023-05-22T10:22:54.476Z,39.30
2023-05-22T10:25:22.859Z,37.40
2023-05-22T10:27:53.902Z,36.70
2023-05-22T10:30:29.486Z,38.70
2023-05-22T10:33:23.834Z,39.90
2023-05-22T10:35:56.285Z,39.90
2023-05-22T10:38:51.561Z,39.00
2023-05-22T10:41:21.400Z,37.70
2023-05-22T10:43:50.918Z,39.40
2023-05-22T10:46:19.974Z,39.60
2023-05-22T10:48:48.934Z,39.10
2023-05-22T10:51:22.551Z,38.80
2023-05-22T10:53:55.078Z,40.10
2023-05-22T10:56:25.345Z,39.70
2023-05-22T10:58:59.224Z,39.40
2023-05-22T11:01:27.660Z,40.70
2023-05-22T11:04:12.133Z,41.00
2023-05-22T11:06:45.776Z,41.60
2023-05-22T11:09:33.252Z,41.00
2023-05-22T11:12:16.953Z,40.50
2023-05-22T11:14:50.926Z,39.70
2023-05-22T11:17:21.791Z,39.10
2023-05-22T11:20:01.672Z,39.20
2023-05-22T11:22:34.600Z,39.40
2023-05-22T11:25:08.823Z,38.40
2023-05-22T11:27:37.472Z,39.10
2023-05-22T11:30:06.697Z,38.10
2023-05-22T11:32:37.642Z,38.20
2023-05-22T11:35:08.237Z,37.90
2023-05-22T11:37:39.795Z,38.80
2023-05-22T11:40:10.836Z,39.80
2023-05-22T11:42:39.277Z,39.40
2023-05-22T11:45:08.325Z,39.00
2023-05-22T11:47:36.856Z,39.20
2023-05-22T11:50:06.710Z,39.50
2023-05-22T11:52:37.208Z,38.60
2023-05-22T11:55:06.429Z,36.60
2023-05-22T11:57:36.822Z,34.10
2023-05-22T12:00:06.434Z,33.10
2023-05-22T12:02:40.358Z,32.10
2023-05-22T12:05:11.956Z,32.00
2023-05-22T12:07:40.139Z,31.30
2023-05-22T12:10:11.086Z,29.90
2023-05-22T12:12:41.329Z,29.80
2023-05-22T12:15:10.494Z,30.20
2023-05-22T12:17:39.288Z,29.70
2023-05-22T12:20:08.315Z,29.70
2023-05-22T12:22:42.093Z,28.90
2023-05-22T12:25:16.667Z,28.80
2023-05-22T12:27:46.494Z,28.80
2023-05-22T12:30:15.641Z,28.70
2023-05-22T12:32:48.757Z,28.80
2023-05-22T12:35:17.167Z,28.90
2023-05-22T12:37:50.596Z,29.00
2023-05-22T12:40:19.003Z,28.60
2023-05-22T12:42:49.374Z,28.60
2023-05-22T12:45:18.367Z,28.80
2023-05-22T12:47:46.943Z,29.10
2023-05-22T12:50:15.208Z,28.80
2023-05-22T12:52:43.367Z,28.90
2023-05-22T12:55:12.254Z,28.50
2023-05-22T12:57:40.238Z,28.20
2023-05-22T13:00:11.343Z,28.30
2023-05-22T13:02:39.512Z,28.00
2023-05-22T13:05:08.173Z,28.20
2023-05-22T13:07:36.437Z,27.70
2023-05-22T13:10:04.923Z,27.70
2023-05-22T13:12:33.657Z,28.00
2023-05-22T13:15:02.213Z,27.90
2023-05-22T13:17:31.914Z,28.00
2023-05-22T13:19:59.922Z,28.00
2023-05-22T13:22:28.443Z,27.70
2023-05-22T13:24:56.491Z,27.30
2023-05-22T13:27:24.672Z,26.90
2023-05-22T13:29:52.815Z,27.10
2023-05-22T13:32:21.247Z,27.40
2023-05-22T13:34:50.733Z,27.50
2023-05-22T13:37:18.996Z,27.40
2023-05-22T13:39:47.139Z,27.40
2023-05-22T13:42:15.572Z,27.40
2023-05-22T13:44:44.207Z,27.70
2023-05-22T13:47:12.537Z,27.40
2023-05-22T13:49:40.983Z,27.20
2023-05-22T13:52:11.006Z,27.00
2023-05-22T13:54:39.091Z,26.90
2023-05-22T13:57:07.861Z,27.10
2023-05-22T13:59:36.297Z,26.90
2023-05-22T14:02:04.436Z,26.90
2023-05-22T14:04:35.122Z,27.00
2023-05-22T14:07:03.503Z,27.00
2023-05-22T14:09:32.957Z,27.20
2023-05-22T14:12:00.991Z,26.90
2023-05-22T14:14:29.070Z,27.20
2023-05-22T14:16:58.692Z,27.30
2023-05-22T14:19:27.109Z,27.30
2023-05-22T14:21:57.349Z,27.10
2023-05-22T14:24:27.206Z,27.10
2023-05-22T14:26:58.548Z,27.10
2023-05-22T14:29:27.044Z,27.10
2023-05-22T14:32:02.677Z,27.30
2023-05-22T14:34:31.948Z,27.20
2023-05-22T14:37:00.457Z,27.20
2023-05-22T14:39:28.899Z,27.20
2023-05-22T14:41:58.687Z,27.00
2023-05-22T14:44:28.630Z,27.00
2023-05-22T14:46:58.501Z,27.30
2023-05-22T14:49:32.315Z,27.30
2023-05-22T14:52:02.982Z,27.50
2023-05-22T14:54:33.157Z,27.70
2023-05-22T14:57:08.248Z,27.80
2023-05-22T14:59:38.280Z,27.80
2023-05-22T15:02:07.909Z,27.90
2023-05-22T15:04:36.693Z,27.90
2023-05-22T15:07:08.789Z,27.50
2023-05-22T15:09:37.623Z,26.50
2023-05-22T15:12:08.233Z,25.50
2023-05-22T15:14:38.606Z,24.60
2023-05-22T15:17:07.223Z,24.20
2023-05-22T15:19:37.518Z,24.10
2023-05-22T15:22:18.257Z,24.00
2023-05-22T15:24:48.861Z,23.90
2023-05-22T15:27:18.355Z,23.80
2023-05-22T15:29:46.352Z,23.50
2023-05-22T15:32:14.380Z,23.30
2023-05-22T15:34:42.940Z,23.30
2023-05-22T15:37:10.939Z,23.00
2023-05-22T15:39:38.993Z,23.00
2023-05-22T15:42:08.241Z,23.10
2023-05-22T15:44:38.184Z,22.90
2023-05-22T15:47:09.098Z,23.20
2023-05-22T15:49:37.221Z,23.40
2023-05-22T15:52:07.323Z,23.30
2023-05-22T15:54:35.343Z,23.00
2023-05-22T15:57:03.590Z,23.10
2023-05-22T15:59:31.811Z,23.30
2023-05-22T16:02:01.179Z,23.30
2023-05-22T16:04:35.880Z,23.40
2023-05-22T16:07:05.922Z,23.50
2023-05-22T16:09:36.649Z,23.80
2023-05-22T16:12:05.744Z,24.10
2023-05-22T16:14:33.890Z,24.30
2023-05-22T16:17:04.334Z,24.30
2023-05-22T16:19:33.719Z,24.10
2023-05-22T16:22:04.992Z,24.00
2023-05-22T16:24:33.516Z,23.60
2023-05-22T16:27:01.780Z,23.50
2023-05-22T16:29:32.448Z,23.40
2023-05-22T16:32:10.632Z,23.50
2023-05-22T16:34:40.146Z,23.50
2023-05-22T16:37:09.077Z,23.50
2023-05-22T16:39:39.744Z,23.40
2023-05-22T16:42:07.846Z,23.30
2023-05-22T16:44:35.947Z,23.20
2023-05-22T16:47:06.914Z,23.20
2023-05-22T16:49:35.409Z,23.00
2023-05-22T16:52:03.920Z,22.90
2023-05-22T16:54:33.508Z,22.90
2023-05-22T16:57:01.829Z,23.00
2023-05-22T16:59:31.060Z,23.00
2023-05-22T17:01:59.152Z,23.00
2023-05-22T17:04:29.816Z,22.90
2023-05-22T17:06:57.910Z,22.90
2023-05-22T17:09:27.479Z,22.80
2023-05-22T17:11:55.796Z,22.70
2023-05-22T17:14:25.907Z,22.70
2023-05-22T17:16:54.836Z,22.70
2023-05-22T17:19:24.512Z,22.80
2023-05-22T17:21:56.687Z,22.70
2023-05-22T17:24:24.933Z,22.80
2023-05-22T17:26:53.482Z,22.70
2023-05-22T17:29:22.350Z,22.50
2023-05-22T17:31:50.625Z,22.50
2023-05-22T17:34:18.816Z,22.60
2023-05-22T17:36:46.767Z,22.60
2023-05-22T17:39:17.393Z,22.60
2023-05-22T17:41:45.903Z,22.50
2023-05-22T17:44:14.248Z,22.50
2023-05-22T17:46:42.577Z,22.40
2023-05-22T17:49:12.695Z,22.20
2023-05-22T17:51:40.764Z,22.00
2023-05-22T17:54:09.327Z,21.90
2023-05-22T17:56:39.030Z,21.70
2023-05-22T17:59:08.319Z,21.80
2023-05-22T18:01:36.519Z,21.80
2023-05-22T18:04:04.897Z,21.80
2023-05-22T18:06:33.144Z,21.80
2023-05-22T18:09:02.250Z,21.70
2023-05-22T18:11:30.371Z,21.80
2023-05-22T18:13:59.723Z,21.70
2023-05-22T18:16:27.761Z,21.60
2023-05-22T18:18:55.954Z,21.50
2023-05-22T18:21:24.086Z,21.50
2023-05-22T18:23:52.178Z,21.40
2023-05-22T18:26:20.146Z,21.30
2023-05-22T18:28:49.244Z,21.20
2023-05-22T18:31:18.749Z,21.20
2023-05-22T18:33:47.289Z,21.00
2023-05-22T18:36:16.184Z,20.90
2023-05-22T18:38:44.357Z,20.80
2023-05-22T18:41:12.446Z,20.70
2023-05-22T18:43:40.687Z,20.60
2023-05-22T18:46:08.856Z,20.50
2023-05-22T18:48:38.204Z,20.30
2023-05-22T18:51:06.213Z,20.20
2023-05-22T18:53:34.184Z,20.10
2023-05-22T18:56:02.308Z,20.00
2023-05-22T18:58:30.272Z,19.90
2023-05-22T19:00:58.346Z,19.80
2023-05-22T19:03:26.417Z,19.70
2023-05-22T19:05:55.890Z,19.60
2023-05-22T19:08:25.299Z,19.40
2023-05-22T19:10:53.458Z,19.40
2023-05-22T19:13:21.489Z,19.40
2023-05-22T19:15:49.477Z,19.50
2023-05-22T19:18:18.240Z,19.50
2023-05-22T19:20:46.299Z,19.50
2023-05-22T19:23:15.699Z,19.50
2023-05-22T19:25:43.631Z,19.50
2023-05-22T19:28:11.638Z,19.50
2023-05-22T19:30:40.216Z,19.50
2023-05-22T19:33:09.100Z,19.50
2023-05-22T19:35:37.860Z,19.40
2023-05-22T19:38:05.858Z,19.50
2023-05-22T19:40:35.246Z,19.50
2023-05-22T19:43:03.692Z,19.50
2023-05-22T19:45:31.794Z,19.50
2023-05-22T19:47:59.835Z,19.40
2023-05-22T19:50:27.878Z,19.50
2023-05-22T19:52:56.316Z,19.40
2023-05-22T19:55:26.342Z,19.40
2023-05-22T19:57:55.672Z,19.40
2023-05-22T20:00:23.949Z,19.30
2023-05-22T20:02:51.961Z,19.30
2023-05-22T20:05:20.563Z,19.20
2023-05-22T20:07:49.278Z,19.10
2023-05-22T20:10:17.342Z,19.10
2023-05-22T20:12:45.945Z,19.10
2023-05-22T20:15:15.951Z,19.10
2023-05-22T20:17:47.716Z,19.00
2023-05-22T20:20:15.975Z,18.90
2023-05-22T20:22:43.977Z,18.90
2023-05-22T20:25:12.284Z,18.70
2023-05-22T20:27:40.573Z,18.70
2023-05-22T20:30:11.432Z,18.60
2023-05-22T20:32:42.538Z,18.50
2023-05-22T20:35:12.967Z,18.50
2023-05-22T20:37:41.635Z,18.40
2023-05-22T20:40:10.589Z,18.40
2023-05-22T20:42:38.681Z,18.40
2023-05-22T20:45:07.746Z,18.30
2023-05-22T20:47:35.952Z,18.30
2023-05-22T20:50:06.475Z,18.20
2023-05-22T20:52:34.460Z,18.10
2023-05-22T20:55:02.709Z,18.00
2023-05-22T20:57:30.968Z,17.90
2023-05-22T20:59:59.373Z,17.80
2023-05-22T21:02:27.426Z,17.70
2023-05-22T21:04:55.396Z,17.70
2023-05-22T21:07:24.694Z,17.70
2023-05-22T21:09:52.705Z,17.60
2023-05-22T21:12:20.703Z,17.40
2023-05-22T21:14:48.662Z,17.30
2023-05-22T21:17:16.862Z,17.30
2023-05-22T21:19:44.911Z,17.30
2023-05-22T21:22:12.957Z,17.20
2023-05-22T21:24:46.582Z,17.10
2023-05-22T21:27:14.644Z,17.20
2023-05-22T21:29:42.622Z,17.00
2023-05-22T21:32:10.835Z,16.90
2023-05-22T21:34:38.794Z,16.90
2023-05-22T21:37:06.828Z,16.80
2023-05-22T21:39:34.827Z,16.70
2023-05-22T21:42:04.229Z,16.70
2023-05-22T21:44:32.169Z,16.70
2023-05-22T21:47:00.216Z,16.70
2023-05-22T21:49:28.198Z,16.70
2023-05-22T21:51:56.200Z,16.50
2023-05-22T21:54:24.127Z,16.50
2023-05-22T21:56:53.191Z,16.40
2023-05-22T21:59:22.585Z,16.30
2023-05-22T22:01:50.628Z,16.20
2023-05-22T22:04:21.020Z,16.20
2023-05-22T22:06:51.112Z,16.20
2023-05-22T22:09:19.141Z,16.10
2023-05-22T22:11:48.589Z,16.00
2023-05-22T22:14:16.684Z,16.00
2023-05-22T22:16:46.797Z,16.00
2023-05-22T22:19:15.703Z,15.80
2023-05-22T22:21:45.457Z,15.70
2023-05-22T22:24:15.449Z,15.50
2023-05-22T22:26:43.789Z,15.60
2023-05-22T22:29:11.898Z,15.60
2023-05-22T22:31:40.324Z,15.60
2023-05-22T22:34:09.705Z,15.60
2023-05-22T22:36:37.650Z,15.50
2023-05-22T22:39:05.994Z,15.40
2023-05-22T22:41:36.218Z,15.30
2023-05-22T22:44:04.286Z,15.30
2023-05-22T22:46:32.352Z,15.30
2023-05-22T22:49:01.743Z,15.30
2023-05-22T22:51:31.862Z,15.30
2023-05-22T22:53:59.938Z,15.40
2023-05-22T22:56:29.344Z,15.40
2023-05-22T22:58:57.687Z,15.40
2023-05-22T23:01:25.687Z,15.40
2023-05-22T23:03:53.855Z,15.40
2023-05-22T23:06:23.750Z,15.30
2023-05-22T23:08:53.167Z,15.30
2023-05-22T23:11:21.149Z,15.30
2023-05-22T23:13:49.190Z,15.40
2023-05-22T23:16:17.264Z,15.30
2023-05-22T23:18:45.403Z,15.30
2023-05-22T23:21:13.447Z,15.30
2023-05-22T23:23:41.753Z,15.10
2023-05-22T23:26:11.028Z,15.10
2023-05-22T23:28:39.157Z,15.10
2023-05-22T23:31:09.526Z,15.10
2023-05-22T23:33:37.581Z,15.00
2023-05-22T23:36:05.711Z,15.00
2023-05-22T23:38:33.805Z,15.10
2023-05-22T23:41:01.769Z,15.10
2023-05-22T23:43:31.138Z,15.20
2023-05-22T23:45:59.091Z,15.20
2023-05-22T23:48:29.591Z,15.10
2023-05-22T23:50:57.630Z,15.10
2023-05-22T23:53:25.737Z,15.10
2023-05-22T23:55:53.638Z,15.00
2023-05-22T23:58:21.693Z,15.00
